createdAt,value
2022-10-24T00:00:29.349Z,12.16
2022-10-24T00:02:56.132Z,12.15
2022-10-24T00:05:23.084Z,12.13
2022-10-24T00:07:50.524Z,12.10
2022-10-24T00:10:18.333Z,12.07
2022-10-24T00:12:45.777Z,12.03
2022-10-24T00:15:13.098Z,11.99
2022-10-24T00:17:39.979Z,11.95
2022-10-24T00:20:07.557Z,11.93
2022-10-24T00:22:34.429Z,11.94
2022-10-24T00:25:01.157Z,11.93
2022-10-24T00:27:27.962Z,11.91
2022-10-24T00:29:54.826Z,11.91
2022-10-24T00:32:21.663Z,11.89
2022-10-24T00:34:48.862Z,11.86
2022-10-24T00:37:16.068Z,11.87
2022-10-24T00:39:43.218Z,11.87
2022-10-24T00:42:11.553Z,11.85
2022-10-24T00:44:40.291Z,11.82
2022-10-24T00:47:11.312Z,11.79
2022-10-24T00:49:52.700Z,11.74
2022-10-24T00:52:24.264Z,11.71
2022-10-24T00:54:54.100Z,11.70
2022-10-24T00:57:22.839Z,11.70
2022-10-24T00:59:55.831Z,11.71
2022-10-24T01:02:22.781Z,11.70
2022-10-24T01:04:49.837Z,11.67
2022-10-24T01:07:26.204Z,11.66
2022-10-24T01:10:26.815Z,11.69
2022-10-24T01:13:08.144Z,11.71
2022-10-24T01:15:47.887Z,11.71
2022-10-24T01:18:23.907Z,11.74
2022-10-24T01:20:56.388Z,11.74
2022-10-24T01:23:30.143Z,11.75
2022-10-24T01:25:56.687Z,11.75
2022-10-24T01:28:30.810Z,11.76
2022-10-24T01:31:08.562Z,11.77
2022-10-24T01:34:35.074Z,11.78
2022-10-24T01:37:04.885Z,11.79
2022-10-24T01:39:36.955Z,11.83
2022-10-24T01:42:06.564Z,11.83
2022-10-24T01:44:41.367Z,11.83
2022-10-24T01:47:24.654Z,11.84
2022-10-24T01:50:00.970Z,11.84
2022-10-24T01:52:31.736Z,11.82
2022-10-24T01:54:58.600Z,11.82
2022-10-24T01:57:29.710Z,11.80
2022-10-24T01:59:57.079Z,11.79
2022-10-24T02:02:34.816Z,11.79
2022-10-24T02:05:12.894Z,11.78
2022-10-24T02:07:43.435Z,11.76
2022-10-24T02:10:17.585Z,11.75
2022-10-24T02:12:48.842Z,11.72
2022-10-24T02:15:24.275Z,11.70
2022-10-24T02:17:51.847Z,11.69
2022-10-24T02:20:24.127Z,11.68
2022-10-24T02:23:04.407Z,11.67
2022-10-24T02:25:36.480Z,11.68
2022-10-24T02:28:15.356Z,11.69
2022-10-24T02:31:01.069Z,11.68
2022-10-24T02:33:30.455Z,11.66
2022-10-24T02:35:58.724Z,11.66
2022-10-24T02:38:31.825Z,11.66
2022-10-24T02:41:01.488Z,11.67
2022-10-24T02:43:30.230Z,11.63
2022-10-24T02:45:59.073Z,11.62
2022-10-24T02:48:30.584Z,11.62
2022-10-24T02:50:58.038Z,11.60
2022-10-24T02:53:26.376Z,11.59
2022-10-24T02:55:53.311Z,11.58
2022-10-24T02:58:20.275Z,11.56
2022-10-24T03:00:47.365Z,11.57
2022-10-24T03:03:14.296Z,11.56
2022-10-24T03:05:41.103Z,11.54
2022-10-24T03:08:08.059Z,11.53
2022-10-24T03:10:34.859Z,11.54
2022-10-24T03:13:01.507Z,11.52
2022-10-24T03:15:28.398Z,11.52
2022-10-24T03:17:55.061Z,11.52
2022-10-24T03:20:21.743Z,11.53
2022-10-24T03:22:48.772Z,11.52
2022-10-24T03:25:15.573Z,11.54
2022-10-24T03:27:42.483Z,11.54
2022-10-24T03:30:10.099Z,11.57
2022-10-24T03:32:36.744Z,11.59
2022-10-24T03:35:04.043Z,11.62
2022-10-24T03:37:31.008Z,11.63
2022-10-24T03:39:57.783Z,11.66
2022-10-24T03:42:24.486Z,11.66
2022-10-24T03:44:51.392Z,11.65
2022-10-24T03:47:18.114Z,11.65
2022-10-24T03:49:44.947Z,11.65
2022-10-24T03:52:12.575Z,11.67
2022-10-24T03:54:39.656Z,11.67
2022-10-24T03:57:06.584Z,11.68
2022-10-24T03:59:33.489Z,11.68
2022-10-24T04:02:01.547Z,11.68
2022-10-24T04:04:28.361Z,11.68
2022-10-24T04:06:58.895Z,11.70
2022-10-24T04:09:25.576Z,11.69
2022-10-24T04:11:53.539Z,11.68
2022-10-24T04:14:21.852Z,11.67
2022-10-24T04:16:48.862Z,11.66
2022-10-24T04:19:17.942Z,11.64
2022-10-24T04:21:45.909Z,11.63
2022-10-24T04:24:12.733Z,11.64
2022-10-24T04:26:39.503Z,11.65
2022-10-24T04:29:06.597Z,11.64
2022-10-24T04:36:15.717Z,11.62
2022-10-24T04:39:42.121Z,11.64
2022-10-24T04:46:59.985Z,11.85
2022-10-24T04:50:26.443Z,11.89
2022-10-24T04:57:22.519Z,11.91
2022-10-24T05:00:29.159Z,11.90
2022-10-24T05:07:42.579Z,11.96
2022-10-24T05:10:10.304Z,12.00
2022-10-24T05:12:37.177Z,12.02
2022-10-24T05:15:05.169Z,12.05
2022-10-24T05:17:31.841Z,12.07
2022-10-24T05:19:58.588Z,12.08
2022-10-24T05:22:25.585Z,12.08
2022-10-24T05:24:52.398Z,12.06
2022-10-24T05:27:24.553Z,12.02
2022-10-24T05:29:53.004Z,11.98
2022-10-24T05:32:21.048Z,11.91
2022-10-24T05:34:47.687Z,11.86
2022-10-24T05:37:14.735Z,11.83
2022-10-24T05:39:41.737Z,11.81
2022-10-24T05:42:08.788Z,11.80
2022-10-24T05:44:35.554Z,11.79
2022-10-24T05:47:02.401Z,11.79
2022-10-24T05:49:29.128Z,11.79
2022-10-24T05:51:59.066Z,11.79
2022-10-24T05:54:30.280Z,11.80
2022-10-24T05:57:04.851Z,11.80
2022-10-24T05:59:31.579Z,11.81
2022-10-24T06:01:58.630Z,11.80
2022-10-24T06:04:25.575Z,11.79
2022-10-24T06:06:52.237Z,11.75
2022-10-24T06:09:18.959Z,11.72
2022-10-24T06:11:45.851Z,11.68
2022-10-24T06:14:12.614Z,11.66
2022-10-24T06:16:39.419Z,11.63
2022-10-24T06:19:06.236Z,11.60
2022-10-24T06:21:33.037Z,11.57
2022-10-24T06:23:59.791Z,11.57
2022-10-24T06:26:26.687Z,11.58
2022-10-24T06:29:53.087Z,11.66
2022-10-24T06:37:12.504Z,11.78
2022-10-24T06:40:38.917Z,11.84
2022-10-24T06:43:19.935Z,11.86
2022-10-24T06:46:46.508Z,11.83
2022-10-24T06:50:12.987Z,11.84
2022-10-24T06:57:21.962Z,11.91
2022-10-24T07:00:48.556Z,11.91
2022-10-24T07:04:15.260Z,11.88
2022-10-24T07:07:41.800Z,11.87
2022-10-24T07:15:01.132Z,11.94
2022-10-24T07:18:24.011Z,12.00
2022-10-24T07:25:42.897Z,12.05
2022-10-24T07:29:09.524Z,12.11
2022-10-24T07:36:17.239Z,12.24
2022-10-24T07:39:43.683Z,12.33
2022-10-24T07:43:13.423Z,12.40
2022-10-24T07:46:39.845Z,12.45
2022-10-24T07:52:59.376Z,12.62
2022-10-24T07:55:26.201Z,12.69
2022-10-24T07:57:53.076Z,12.70
2022-10-24T08:00:20.081Z,12.71
2022-10-24T08:02:47.246Z,12.71
2022-10-24T08:05:13.968Z,12.74
2022-10-24T08:07:41.562Z,12.74
2022-10-24T08:11:08.081Z,12.75
2022-10-24T08:14:34.584Z,12.75
2022-10-24T08:18:01.090Z,12.72
2022-10-24T08:21:27.565Z,12.69
2022-10-24T08:23:55.577Z,12.69
2022-10-24T08:26:24.963Z,12.71
2022-10-24T08:28:53.419Z,12.69
2022-10-24T08:31:21.982Z,12.70
2022-10-24T08:33:50.970Z,12.69
2022-10-24T08:36:24.588Z,12.68
2022-10-24T08:38:51.276Z,12.65
2022-10-24T08:41:27.337Z,12.63
2022-10-24T08:43:56.529Z,12.62
2022-10-24T08:46:44.539Z,12.62
2022-10-24T08:49:26.672Z,12.61
2022-10-24T08:52:03.912Z,12.59
2022-10-24T08:54:37.647Z,12.59
2022-10-24T08:57:06.075Z,12.58
2022-10-24T08:59:36.043Z,12.59
2022-10-24T09:02:14.095Z,12.62
2022-10-24T09:04:49.338Z,12.60
2022-10-24T09:07:22.054Z,12.61
2022-10-24T09:09:52.444Z,12.67
2022-10-24T09:12:21.106Z,12.68
2022-10-24T09:14:57.891Z,12.71
2022-10-24T09:17:31.961Z,12.75
2022-10-24T09:20:04.786Z,12.79
2022-10-24T09:22:33.642Z,12.79
2022-10-24T09:25:06.576Z,12.81
2022-10-24T09:27:39.902Z,12.88
2022-10-24T09:30:15.128Z,12.96
2022-10-24T09:32:43.386Z,13.01
2022-10-24T09:35:18.341Z,13.05
2022-10-24T09:37:55.894Z,13.08
2022-10-24T09:40:30.075Z,13.18
2022-10-24T09:43:19.535Z,13.32
2022-10-24T09:45:51.398Z,13.44
2022-10-24T09:48:39.893Z,13.55
2022-10-24T09:51:07.883Z,13.59
2022-10-24T09:53:41.064Z,13.57
2022-10-24T09:56:11.934Z,13.58
2022-10-24T09:58:38.679Z,13.56
2022-10-24T10:01:14.764Z,13.57
2022-10-24T10:03:41.560Z,13.66
2022-10-24T10:06:21.825Z,13.82
2022-10-24T10:08:51.888Z,13.94
2022-10-24T10:11:26.965Z,13.94
2022-10-24T10:13:54.555Z,13.95
2022-10-24T10:16:39.966Z,14.00
2022-10-24T10:19:20.197Z,14.15
2022-10-24T10:21:58.043Z,14.26
2022-10-24T10:24:44.239Z,14.18
2022-10-24T10:27:38.594Z,14.25
2022-10-24T10:30:12.021Z,14.39
2022-10-24T10:33:12.823Z,14.49
2022-10-24T10:36:24.273Z,14.63
2022-10-24T10:39:06.108Z,14.63
2022-10-24T10:41:52.255Z,14.65
2022-10-24T10:44:47.076Z,14.81
2022-10-24T10:47:41.532Z,14.86
2022-10-24T10:50:47.256Z,15.15
2022-10-24T10:53:39.566Z,15.28
2022-10-24T10:56:39.334Z,15.30
2022-10-24T10:59:14.863Z,15.43
2022-10-24T11:01:44.885Z,15.59
2022-10-24T11:04:20.741Z,15.83
2022-10-24T11:09:48.373Z,15.55
2022-10-24T11:12:25.117Z,15.54
2022-10-24T11:15:14.991Z,15.54
2022-10-24T11:17:54.984Z,15.49
2022-10-24T11:20:44.808Z,15.67
2022-10-24T11:23:18.941Z,15.76
2022-10-24T11:26:16.873Z,15.84
2022-10-24T11:28:59.927Z,15.87
2022-10-24T11:31:38.635Z,15.97
2022-10-24T11:34:23.864Z,15.93
2022-10-24T11:37:19.616Z,15.71
2022-10-24T11:40:04.016Z,15.57
2022-10-24T11:42:46.094Z,15.38
2022-10-24T11:45:18.922Z,15.28
2022-10-24T11:47:58.102Z,15.15
2022-10-24T11:50:28.055Z,15.18
2022-10-24T11:53:28.790Z,15.35
2022-10-24T11:56:04.489Z,15.40
2022-10-24T11:58:36.335Z,15.46
2022-10-24T12:01:24.065Z,15.66
2022-10-24T12:03:59.727Z,15.81
2022-10-24T12:07:01.823Z,15.66
2022-10-24T12:09:34.558Z,15.50
2022-10-24T12:12:26.062Z,15.28
2022-10-24T12:15:20.774Z,15.06
2022-10-24T12:18:14.610Z,14.88
2022-10-24T12:20:42.393Z,14.81
2022-10-24T12:23:21.759Z,14.81
2022-10-24T12:26:01.255Z,14.91
2022-10-24T12:28:28.239Z,14.95
2022-10-24T12:31:10.260Z,14.93
2022-10-24T12:33:37.408Z,14.97
2022-10-24T12:36:04.478Z,15.07
2022-10-24T12:38:31.245Z,15.23
2022-10-24T12:40:58.955Z,15.45
2022-10-24T12:43:36.132Z,15.52
2022-10-24T12:46:18.866Z,15.49
2022-10-24T12:48:58.850Z,15.58
2022-10-24T12:51:31.108Z,15.63
2022-10-24T12:54:02.479Z,15.63
2022-10-24T12:56:30.656Z,15.74
2022-10-24T12:59:00.959Z,15.86
2022-10-24T13:01:34.591Z,15.89
2022-10-24T13:04:31.573Z,15.88
2022-10-24T13:07:25.892Z,16.11
2022-10-24T13:10:29.999Z,16.33
2022-10-24T13:13:15.331Z,16.53
2022-10-24T13:15:54.283Z,16.64
2022-10-24T13:18:23.681Z,16.91
2022-10-24T13:21:24.262Z,17.56
2022-10-24T13:23:51.397Z,17.90
2022-10-24T13:26:36.790Z,20.53
2022-10-24T13:29:04.746Z,21.92
2022-10-24T13:31:34.378Z,23.25
2022-10-24T13:34:15.896Z,22.88
2022-10-24T13:36:44.350Z,21.69
2022-10-24T13:39:16.575Z,20.88
2022-10-24T13:41:48.319Z,20.11
2022-10-24T13:44:22.185Z,19.45
2022-10-24T13:47:28.358Z,18.45
2022-10-24T13:49:58.794Z,17.88
2022-10-24T13:52:50.326Z,17.35
2022-10-24T13:55:46.760Z,16.89
2022-10-24T13:58:22.989Z,16.60
2022-10-24T14:01:30.433Z,16.40
2022-10-24T14:03:59.366Z,16.18
2022-10-24T14:06:29.130Z,15.99
2022-10-24T14:09:06.431Z,15.75
2022-10-24T14:11:35.361Z,15.55
2022-10-24T14:14:07.053Z,15.47
2022-10-24T14:16:35.038Z,15.45
2022-10-24T14:19:31.105Z,15.46
2022-10-24T14:21:59.595Z,15.57
2022-10-24T14:24:26.472Z,15.62
2022-10-24T14:26:57.024Z,15.64
2022-10-24T14:29:32.638Z,15.50
2022-10-24T14:31:59.680Z,15.33
2022-10-24T14:34:27.267Z,15.18
2022-10-24T14:36:56.032Z,15.11
2022-10-24T14:39:26.387Z,15.04
2022-10-24T14:41:54.194Z,15.07
2022-10-24T14:44:22.778Z,15.19
2022-10-24T14:47:28.821Z,15.32
2022-10-24T14:49:56.581Z,15.39
2022-10-24T14:52:33.561Z,15.19
2022-10-24T14:55:05.257Z,14.98
2022-10-24T14:57:34.576Z,14.82
2022-10-24T15:00:07.609Z,14.67
2022-10-24T15:02:43.243Z,14.54
2022-10-24T15:05:19.599Z,14.44
2022-10-24T15:08:16.577Z,14.39
2022-10-24T15:10:40.800Z,14.35
2022-10-24T15:13:23.709Z,14.43
2022-10-24T15:16:01.236Z,14.44
2022-10-24T15:18:30.980Z,14.36
2022-10-24T15:21:16.244Z,14.31
2022-10-24T15:24:02.026Z,14.26
2022-10-24T15:26:40.642Z,14.19
2022-10-24T15:29:14.955Z,14.17
2022-10-24T15:31:44.346Z,14.15
2022-10-24T15:34:23.215Z,14.13
2022-10-24T15:36:52.574Z,14.11
2022-10-24T15:39:24.745Z,14.07
2022-10-24T15:41:52.632Z,14.08
2022-10-24T15:44:25.131Z,14.13
2022-10-24T15:46:51.851Z,14.16
2022-10-24T15:49:21.124Z,14.15
2022-10-24T15:51:50.446Z,14.12
2022-10-24T15:54:19.329Z,14.11
2022-10-24T15:56:46.258Z,14.10
2022-10-24T15:59:13.167Z,14.08
2022-10-24T16:01:44.527Z,14.04
2022-10-24T16:04:11.604Z,14.01
2022-10-24T16:06:38.588Z,13.98
2022-10-24T16:09:07.532Z,13.96
2022-10-24T16:11:34.326Z,13.93
2022-10-24T16:14:01.315Z,13.92
2022-10-24T16:16:27.943Z,13.88
2022-10-24T16:18:54.698Z,13.84
2022-10-24T16:21:22.228Z,13.81
2022-10-24T16:26:21.307Z,13.73
2022-10-24T16:28:48.902Z,13.71
2022-10-24T16:31:23.622Z,13.67
2022-10-24T16:33:51.930Z,13.62
2022-10-24T16:36:22.207Z,13.58
2022-10-24T16:38:51.224Z,13.50
2022-10-24T16:41:21.117Z,13.45
2022-10-24T16:43:49.872Z,13.42
2022-10-24T16:46:21.525Z,13.37
2022-10-24T16:48:49.691Z,13.33
2022-10-24T16:51:20.586Z,13.31
2022-10-24T16:53:47.505Z,13.26
2022-10-24T16:56:15.716Z,13.26
2022-10-24T16:58:43.220Z,13.23
2022-10-24T17:01:12.673Z,13.21
2022-10-24T17:03:40.032Z,13.15
2022-10-24T17:06:07.778Z,13.11
2022-10-24T17:08:34.853Z,13.06
2022-10-24T17:11:01.709Z,13.03
2022-10-24T17:13:28.817Z,12.99
2022-10-24T17:15:56.725Z,12.98
2022-10-24T17:18:25.584Z,12.95
2022-10-24T17:20:59.062Z,12.93
2022-10-24T17:23:26.480Z,12.88
2022-10-24T17:25:53.995Z,12.83
2022-10-24T17:28:21.035Z,12.79
2022-10-24T17:30:48.214Z,12.75
2022-10-24T17:33:15.139Z,12.71
2022-10-24T17:35:50.829Z,12.65
2022-10-24T17:38:39.898Z,12.62
2022-10-24T17:41:21.546Z,12.62
2022-10-24T17:43:48.685Z,12.61
2022-10-24T17:46:15.632Z,12.59
2022-10-24T17:48:42.520Z,12.58
2022-10-24T17:51:11.546Z,12.58
2022-10-24T17:53:38.152Z,12.58
2022-10-24T17:56:05.221Z,12.58
2022-10-24T17:58:32.080Z,12.56
2022-10-24T18:00:58.790Z,12.55
2022-10-24T18:03:27.872Z,12.56
2022-10-24T18:06:06.636Z,12.56
2022-10-24T18:08:34.061Z,12.52
2022-10-24T18:11:09.367Z,12.50
2022-10-24T18:13:38.006Z,12.45
2022-10-24T18:16:09.068Z,12.43
2022-10-24T18:18:36.155Z,12.41
2022-10-24T18:21:10.987Z,12.38
2022-10-24T18:23:38.369Z,12.38
2022-10-24T18:26:13.603Z,12.37
2022-10-24T18:28:43.005Z,12.37
2022-10-24T18:31:12.231Z,12.35
2022-10-24T18:33:40.977Z,12.37
2022-10-24T18:36:10.536Z,12.39
2022-10-24T18:38:37.697Z,12.41
2022-10-24T18:41:04.941Z,12.41
2022-10-24T18:43:31.852Z,12.38
2022-10-24T18:46:01.343Z,12.38
2022-10-24T18:48:28.805Z,12.38
2022-10-24T18:50:55.740Z,12.38
2022-10-24T18:53:26.410Z,12.35
2022-10-24T18:55:53.691Z,12.31
2022-10-24T18:58:20.785Z,12.30
2022-10-24T19:00:48.185Z,12.28
2022-10-24T19:03:31.698Z,12.29
2022-10-24T19:06:10.651Z,12.26
2022-10-24T19:08:37.703Z,12.26
2022-10-24T19:11:04.765Z,12.26
2022-10-24T19:13:31.597Z,12.26
2022-10-24T19:16:01.038Z,12.24
2022-10-24T19:18:31.277Z,12.25
2022-10-24T19:20:59.318Z,12.24
2022-10-24T19:23:26.319Z,12.21
2022-10-24T19:25:53.515Z,12.19
2022-10-24T19:28:20.766Z,12.16
2022-10-24T19:30:48.744Z,12.12
2022-10-24T19:33:16.649Z,12.10
2022-10-24T19:35:47.603Z,12.06
2022-10-24T19:38:18.780Z,12.04
2022-10-24T19:40:52.047Z,12.05
2022-10-24T19:43:20.706Z,12.03
2022-10-24T19:46:07.303Z,12.02
2022-10-24T19:48:39.875Z,12.01
2022-10-24T19:51:12.733Z,12.00
2022-10-24T19:53:41.192Z,11.96
2022-10-24T19:56:34.560Z,11.98
2022-10-24T19:59:01.794Z,12.00
2022-10-24T20:01:30.194Z,12.02
2022-10-24T20:03:57.381Z,12.02
2022-10-24T20:06:27.501Z,12.03
2022-10-24T20:08:54.341Z,12.03
2022-10-24T20:11:21.701Z,12.06
2022-10-24T20:13:50.541Z,12.11
2022-10-24T20:16:18.288Z,12.11
2022-10-24T20:18:45.982Z,12.10
2022-10-24T20:21:16.515Z,12.15
2022-10-24T20:23:43.907Z,12.17
2022-10-24T20:26:22.562Z,12.16
2022-10-24T20:28:51.154Z,12.13
2022-10-24T20:31:25.727Z,12.14
2022-10-24T20:33:53.221Z,12.16
2022-10-24T20:36:21.421Z,12.16
2022-10-24T20:38:48.525Z,12.12
2022-10-24T20:41:15.324Z,12.10
2022-10-24T20:43:42.238Z,12.10
2022-10-24T20:46:09.224Z,12.06
2022-10-24T20:48:35.966Z,12.04
2022-10-24T20:51:08.616Z,12.03
2022-10-24T20:53:35.668Z,12.04
2022-10-24T20:56:11.514Z,12.02
2022-10-24T20:58:41.079Z,12.01
2022-10-24T21:01:22.614Z,11.99
2022-10-24T21:03:51.231Z,11.98
2022-10-24T21:06:31.279Z,11.97
2022-10-24T21:09:01.320Z,11.96
2022-10-24T21:11:30.227Z,11.99
2022-10-24T21:14:05.949Z,12.05
2022-10-24T21:16:33.714Z,12.04
2022-10-24T21:19:00.985Z,12.03
2022-10-24T21:21:28.460Z,12.00
2022-10-24T21:24:02.673Z,11.99
2022-10-24T21:26:39.945Z,12.01
2022-10-24T21:29:14.942Z,12.01
2022-10-24T21:31:55.106Z,11.99
2022-10-24T21:38:04.863Z,11.93
2022-10-24T21:40:31.568Z,11.92
2022-10-24T21:43:00.518Z,11.92
2022-10-24T21:45:27.447Z,11.92
2022-10-24T21:47:54.215Z,11.91
2022-10-24T21:50:20.988Z,11.91
2022-10-24T21:52:48.193Z,11.89
2022-10-24T21:55:15.241Z,11.90
2022-10-24T21:57:41.967Z,11.89
2022-10-24T22:00:09.429Z,11.87
2022-10-24T22:02:36.360Z,11.86
2022-10-24T22:05:03.161Z,11.88
2022-10-24T22:07:30.006Z,11.86
2022-10-24T22:09:56.811Z,11.84
2022-10-24T22:12:23.452Z,11.82
2022-10-24T22:14:50.127Z,11.82
2022-10-24T22:17:16.953Z,11.82
2022-10-24T22:19:43.701Z,11.80
2022-10-24T22:22:10.644Z,11.77
2022-10-24T22:24:37.412Z,11.77
2022-10-24T22:27:04.163Z,11.78
2022-10-24T22:29:30.849Z,11.79
2022-10-24T22:31:58.029Z,11.77
2022-10-24T22:34:26.081Z,11.75
2022-10-24T22:37:13.099Z,11.75
2022-10-24T22:39:40.543Z,11.73
2022-10-24T22:42:11.507Z,11.72
2022-10-24T22:44:40.698Z,11.71
2022-10-24T22:47:13.427Z,11.68
2022-10-24T22:50:03.630Z,11.63
2022-10-24T22:52:30.596Z,11.61
2022-10-24T22:54:57.668Z,11.62
2022-10-24T22:57:24.802Z,11.60
2022-10-24T22:59:51.693Z,11.59
2022-10-24T23:02:30.439Z,11.59
2022-10-24T23:05:28.084Z,11.60
2022-10-24T23:08:00.357Z,11.59
2022-10-24T23:10:27.105Z,11.58
2022-10-24T23:12:54.227Z,11.57
2022-10-24T23:15:22.106Z,11.58
2022-10-24T23:17:50.589Z,11.57
2022-10-24T23:20:17.344Z,11.55
2022-10-24T23:22:54.281Z,11.55
2022-10-24T23:25:30.282Z,11.53
2022-10-24T23:28:24.483Z,11.50
2022-10-24T23:30:51.381Z,11.46
2022-10-24T23:33:27.287Z,11.44
2022-10-24T23:35:58.270Z,11.41
2022-10-24T23:38:25.873Z,11.40
2022-10-24T23:40:53.355Z,11.39
2022-10-24T23:43:21.597Z,11.39
2022-10-24T23:46:07.042Z,11.37
2022-10-24T23:48:55.808Z,11.36
2022-10-24T23:51:32.658Z,11.34
2022-10-24T23:53:59.752Z,11.32
2022-10-24T23:56:28.609Z,11.29
2022-10-24T23:58:56.296Z,11.23
